Pence, Wisconsin
Current Conditions -  °F | °C
As of 11:15 AM on Saturday 25 Oct 2014 (Local Time) from KIWD Reporting Station
Clear Clear  
Wind Chill: 52°   Ceiling: Unl
Heat Index: 52°   Visibility: 10mi
Dew Point: 34°   Wind: 24mph
Humidity: 50%   Direction: 290°WNW
Pressure: 29.85"   Gusts: 31mph
Location:  46.3634°N, 90.2665°W
Report Text: KIWD 251615Z AUTO 29021G27KT 10SM CLR 11/01 A2985 RMK AO1
Loading
Personal Weather Stations






























Interactive Weather Map
Tropical Storm Tracking
New forecast layout! Learn more

10-Day Weather Forecast

Advertisements
Track Severe Weather on mobile